Options — WDC7840 — position and weather

sailwx.info

Track history (hours):
 
Tides and Currents Weather Stations Pressure Air Temp Water Temp Dewpoint Dewpoint Depression Visibility Wind Speed Wind Dir Waves Ship Positions

Options

Owner: Dunham, Michael B, La Quinta, CA. More information available from US FCC via Universal Licensing System and Coast Guard Vessel Documentation Center.

Last reported at 2017-Sep-13 19:30 UTC. Time now 2017-Nov-18 01:11 UTC.
Position N 33°41' W 119°00'.
Warning: this ship's position is months out of date.

Type: Sailing vessel. MMSI: 367077710.

Date/timePositionNaut miles runAvg speedWind from/ knotsBaromVisibWave heightAir tempDewpointWater temp
2017-Sep-13 19:30N 33°41' W 119°00'3 6.6
2017-Sep-13 18:58N 33°43' W 119°04'3 6.6
2017-Sep-13 18:30N 33°44' W 119°07'3 7.0
2017-Sep-13 18:00N 33°46' W 119°11'3 6.8
2017-Sep-13 17:30N 33°47' W 119°15'3 6.7
2017-Sep-13 17:00N 33°49' W 119°18'3 6.6
2017-Sep-13 16:30N 33°50' W 119°22'3 6.2
2017-Sep-13 15:59N 33°51' W 119°25'3 6.1
2017-Sep-13 15:29N 33°53' W 119°29'3 6.4
2017-Sep-13 14:57N 33°54' W 119°33'3 6.5
2017-Sep-13 14:29N 33°55' W 119°36'6 0.2
2017-Sep-11 23:45N 33°58' W 119°42'0 0.0
2017-Sep-11 23:30N 33°58' W 119°42'8 4.3
2017-Sep-11 21:35N 33°58' W 119°52'1 5.3
2017-Sep-11 21:29N 33°59' W 119°53'2 4.5
2017-Sep-11 20:56N 34°01' W 119°54'1 2.1
2017-Sep-11 20:30N 34°02' W 119°55'1 1.8
2017-Sep-11 19:57N 34°02' W 119°56'2 3.1
2017-Sep-11 19:22N 34°04' W 119°56'2 5.1
2017-Sep-11 18:54N 34°05' W 119°53'2 3.3
2017-Sep-11 18:25N 34°05' W 119°51'2 5.4
2017-Sep-11 17:58N 34°04' W 119°48'3 5.2
2017-Sep-11 17:22N 34°03' W 119°44'3 5.4
2017-Sep-11 16:54N 34°02' W 119°42'1 0.0
2017-Sep-10 03:51N 34°01' W 119°41'0 0.0
2017-Sep-10 03:27N 34°01' W 119°41'0 0.0
2017-Sep-10 02:21N 34°01' W 119°41'0 0.0
2017-Sep-10 01:48N 34°01' W 119°41'0 0.0
2017-Sep-10 01:30N 34°01' W 119°41'0 0.0
2017-Sep-10 01:00N 34°01' W 119°41'0 0.0
2017-Sep-10 00:27N 34°01' W 119°41'0 0.0
2017-Sep-09 03:32N 34°01' W 119°41'0 0.0
2017-Sep-09 03:23N 34°01' W 119°41'0 0.0
2017-Sep-09 02:59N 34°01' W 119°41'0 0.0
2017-Sep-09 02:29N 34°01' W 119°41'0 0.0
2017-Sep-09 01:53N 34°01' W 119°41'0 0.0
2017-Sep-09 01:29N 34°01' W 119°41'0 0.0
2017-Sep-09 00:59N 34°01' W 119°41'0 0.0
2017-Sep-09 00:29N 34°01' W 119°41'3 5.4
2017-Sep-08 23:57N 34°02' W 119°38'3 5.1
2017-Sep-08 23:27N 34°03' W 119°35'3 4.8
2017-Sep-08 22:50N 34°04' W 119°32'3 5.8
2017-Sep-08 22:24N 34°03' W 119°29'4 5.3
2017-Sep-08 21:44N 34°02' W 119°25'1 5.1
2017-Sep-08 21:30N 34°02' W 119°23'3 5.5
2017-Sep-08 21:00N 34°01' W 119°20'3 6.3
2017-Sep-08 20:29N 34°01' W 119°16'3 6.6
2017-Sep-08 20:00N 34°00' W 119°12'3 6.5
2017-Sep-08 19:29N 33°60' W 119°08'3 6.9
2017-Sep-08 19:00N 33°59' W 119°04'3 6.5
2017-Sep-08 18:30N 33°58' W 119°00'3 6.6
2017-Sep-08 18:00N 33°58' W 118°57'3 6.4
2017-Sep-08 17:30N 33°57' W 118°53'3 6.5
2017-Sep-08 17:00N 33°57' W 118°49'  
Track history (hours):
 
Tides and Currents Weather Stations Pressure Air Temp Water Temp Dewpoint Dewpoint Depression Visibility Wind Speed Wind Dir Waves Ship Positions

Options

Owner: Dunham, Michael B, La Quinta, CA. More information available from US FCC via Universal Licensing System and Coast Guard Vessel Documentation Center.

Last reported at 2017-Sep-13 19:30 UTC. Time now 2017-Nov-18 01:11 UTC.
Position N 33°41' W 119°00'.
Warning: this ship's position is months out of date.

Type: Sailing vessel. MMSI: 367077710.

Date/timePositionNaut miles runAvg speedWind from/ knotsBaromVisibWave heightAir tempDewpointWater temp
2017-Sep-13 19:30N 33°41' W 119°00'3 6.6
2017-Sep-13 18:58N 33°43' W 119°04'3 6.6
2017-Sep-13 18:30N 33°44' W 119°07'3 7.0
2017-Sep-13 18:00N 33°46' W 119°11'3 6.8
2017-Sep-13 17:30N 33°47' W 119°15'3 6.7
2017-Sep-13 17:00N 33°49' W 119°18'3 6.6
2017-Sep-13 16:30N 33°50' W 119°22'3 6.2
2017-Sep-13 15:59N 33°51' W 119°25'3 6.1
2017-Sep-13 15:29N 33°53' W 119°29'3 6.4
2017-Sep-13 14:57N 33°54' W 119°33'3 6.5
2017-Sep-13 14:29N 33°55' W 119°36'6 0.2
2017-Sep-11 23:45N 33°58' W 119°42'0 0.0
2017-Sep-11 23:30N 33°58' W 119°42'8 4.3
2017-Sep-11 21:35N 33°58' W 119°52'1 5.3
2017-Sep-11 21:29N 33°59' W 119°53'2 4.5
2017-Sep-11 20:56N 34°01' W 119°54'1 2.1
2017-Sep-11 20:30N 34°02' W 119°55'1 1.8
2017-Sep-11 19:57N 34°02' W 119°56'2 3.1
2017-Sep-11 19:22N 34°04' W 119°56'2 5.1
2017-Sep-11 18:54N 34°05' W 119°53'2 3.3
2017-Sep-11 18:25N 34°05' W 119°51'2 5.4
2017-Sep-11 17:58N 34°04' W 119°48'3 5.2
2017-Sep-11 17:22N 34°03' W 119°44'3 5.4
2017-Sep-11 16:54N 34°02' W 119°42'1 0.0
2017-Sep-10 03:51N 34°01' W 119°41'0 0.0
2017-Sep-10 03:27N 34°01' W 119°41'0 0.0
2017-Sep-10 02:21N 34°01' W 119°41'0 0.0
2017-Sep-10 01:48N 34°01' W 119°41'0 0.0
2017-Sep-10 01:30N 34°01' W 119°41'0 0.0
2017-Sep-10 01:00N 34°01' W 119°41'0 0.0
2017-Sep-10 00:27N 34°01' W 119°41'0 0.0
2017-Sep-09 03:32N 34°01' W 119°41'0 0.0
2017-Sep-09 03:23N 34°01' W 119°41'0 0.0
2017-Sep-09 02:59N 34°01' W 119°41'0 0.0
2017-Sep-09 02:29N 34°01' W 119°41'0 0.0
2017-Sep-09 01:53N 34°01' W 119°41'0 0.0
2017-Sep-09 01:29N 34°01' W 119°41'0 0.0
2017-Sep-09 00:59N 34°01' W 119°41'0 0.0
2017-Sep-09 00:29N 34°01' W 119°41'3 5.4
2017-Sep-08 23:57N 34°02' W 119°38'3 5.1
2017-Sep-08 23:27N 34°03' W 119°35'3 4.8
2017-Sep-08 22:50N 34°04' W 119°32'3 5.8
2017-Sep-08 22:24N 34°03' W 119°29'4 5.3
2017-Sep-08 21:44N 34°02' W 119°25'1 5.1
2017-Sep-08 21:30N 34°02' W 119°23'3 5.5
2017-Sep-08 21:00N 34°01' W 119°20'3 6.3
2017-Sep-08 20:29N 34°01' W 119°16'3 6.6
2017-Sep-08 20:00N 34°00' W 119°12'3 6.5
2017-Sep-08 19:29N 33°60' W 119°08'3 6.9
2017-Sep-08 19:00N 33°59' W 119°04'3 6.5
2017-Sep-08 18:30N 33°58' W 119°00'3 6.6
2017-Sep-08 18:00N 33°58' W 118°57'3 6.4
2017-Sep-08 17:30N 33°57' W 118°53'3 6.5
2017-Sep-08 17:00N 33°57' W 118°49'  

Dump ship's entire track history